createdAt,value
2022-10-26T00:01:22.765Z,7.13
2022-10-26T00:03:51.123Z,6.95
2022-10-26T00:06:22.161Z,6.47
2022-10-26T00:08:52.199Z,6.78
2022-10-26T00:11:20.258Z,6.95
2022-10-26T00:13:49.172Z,6.75
2022-10-26T00:16:28.116Z,7.80
2022-10-26T00:18:56.268Z,7.90
2022-10-26T00:21:24.304Z,7.47
2022-10-26T00:23:52.469Z,7.15
2022-10-26T00:26:20.353Z,6.65
2022-10-26T00:28:49.002Z,7.53
2022-10-26T00:31:17.912Z,7.18
2022-10-26T00:33:46.115Z,6.78
2022-10-26T00:36:16.949Z,6.97
2022-10-26T00:38:53.834Z,6.45
2022-10-26T00:41:32.369Z,6.47
2022-10-26T00:44:01.367Z,6.63
2022-10-26T00:46:38.017Z,6.72
2022-10-26T00:49:14.599Z,6.50
2022-10-26T00:51:55.671Z,6.18
2022-10-26T00:54:23.948Z,6.53
2022-10-26T00:56:54.960Z,6.50
2022-10-26T00:59:24.337Z,6.70
2022-10-26T01:01:53.529Z,5.85
2022-10-26T01:04:21.814Z,6.55
2022-10-26T01:06:52.075Z,6.55
2022-10-26T01:09:21.892Z,6.88
2022-10-26T01:11:49.803Z,6.32
2022-10-26T01:14:20.094Z,6.53
2022-10-26T01:17:09.468Z,6.70
2022-10-26T01:20:21.604Z,6.22
2022-10-26T01:22:59.848Z,6.32
2022-10-26T01:25:49.499Z,6.55
2022-10-26T01:29:07.491Z,6.20
2022-10-26T01:31:49.693Z,6.05
2022-10-26T01:34:34.968Z,6.57
2022-10-26T01:37:22.495Z,5.72
2022-10-26T01:40:00.374Z,5.75
2022-10-26T01:42:31.155Z,6.38
2022-10-26T01:45:07.398Z,5.50
2022-10-26T01:47:38.245Z,5.82
2022-10-26T01:50:08.905Z,5.50
2022-10-26T01:52:37.146Z,5.72
2022-10-26T01:55:43.068Z,6.45
2022-10-26T01:58:41.543Z,5.85
2022-10-26T02:01:52.323Z,5.72
2022-10-26T02:04:47.182Z,5.40
2022-10-26T02:07:53.841Z,5.65
2022-10-26T02:10:45.529Z,5.07
2022-10-26T02:13:26.153Z,6.13
2022-10-26T02:16:18.922Z,5.13
2022-10-26T02:19:05.859Z,5.47
2022-10-26T02:21:42.102Z,5.28
2022-10-26T02:24:14.496Z,5.63
2022-10-26T02:26:46.590Z,5.22
2022-10-26T02:29:19.021Z,5.43
2022-10-26T02:31:50.274Z,5.35
2022-10-26T02:34:25.965Z,5.85
2022-10-26T02:36:57.703Z,5.78
2022-10-26T02:41:56.818Z,6.07
2022-10-26T02:44:33.606Z,5.80
2022-10-26T02:47:02.269Z,5.40
2022-10-26T02:49:30.506Z,5.57
2022-10-26T02:52:23.144Z,5.25
2022-10-26T02:55:27.580Z,5.30
2022-10-26T02:58:02.489Z,5.38
2022-10-26T03:00:31.276Z,5.18
2022-10-26T03:03:03.870Z,5.20
2022-10-26T03:05:33.270Z,5.22
2022-10-26T03:08:01.934Z,5.30
2022-10-26T03:10:30.813Z,5.25
2022-10-26T03:12:58.583Z,5.82
2022-10-26T03:15:26.525Z,5.38
2022-10-26T03:17:54.528Z,5.25
2022-10-26T03:20:22.705Z,4.97
2022-10-26T03:22:50.645Z,4.78
2022-10-26T03:25:18.616Z,5.47
2022-10-26T03:27:47.726Z,4.82
2022-10-26T03:30:16.572Z,5.25
2022-10-26T03:32:44.681Z,5.57
2022-10-26T03:35:12.515Z,5.13
2022-10-26T03:37:40.578Z,5.95
2022-10-26T03:40:09.765Z,5.82
2022-10-26T03:42:38.406Z,5.88
2022-10-26T03:45:08.306Z,5.60
2022-10-26T03:47:46.108Z,6.13
2022-10-26T03:50:17.608Z,6.32
2022-10-26T03:52:47.276Z,5.90
2022-10-26T03:55:15.689Z,5.80
2022-10-26T03:57:45.321Z,5.82
2022-10-26T04:00:17.500Z,6.35
2022-10-26T04:02:53.888Z,6.03
2022-10-26T04:05:22.380Z,5.30
2022-10-26T04:07:55.572Z,5.65
2022-10-26T04:10:27.741Z,6.47
2022-10-26T04:12:57.410Z,6.43
2022-10-26T04:15:25.637Z,5.82
2022-10-26T04:18:02.031Z,6.10
2022-10-26T04:20:33.597Z,6.20
2022-10-26T04:23:07.481Z,6.18
2022-10-26T04:25:35.421Z,6.10
2022-10-26T04:28:06.489Z,6.65
2022-10-26T04:30:36.106Z,6.40
2022-10-26T04:33:06.573Z,6.38
2022-10-26T04:35:34.625Z,6.28
2022-10-26T04:38:06.031Z,6.60
2022-10-26T04:40:35.341Z,7.32
2022-10-26T04:43:03.277Z,7.57
2022-10-26T04:45:31.607Z,7.80
2022-10-26T04:48:08.319Z,7.47
2022-10-26T04:50:37.210Z,7.82
2022-10-26T04:53:09.512Z,7.75
2022-10-26T04:55:37.644Z,7.63
2022-10-26T04:58:06.145Z,8.55
2022-10-26T05:00:35.216Z,8.32
2022-10-26T05:03:05.744Z,8.88
2022-10-26T05:05:36.404Z,8.32
2022-10-26T05:08:05.065Z,8.95
2022-10-26T05:10:34.901Z,9.02
2022-10-26T05:13:04.632Z,8.77
2022-10-26T05:15:32.650Z,10.15
2022-10-26T05:18:03.534Z,9.15
2022-10-26T05:20:34.220Z,9.53
2022-10-26T05:23:05.985Z,10.55
2022-10-26T05:25:37.355Z,11.23
2022-10-26T05:28:15.068Z,10.82
2022-10-26T05:30:45.353Z,10.25
2022-10-26T05:33:15.674Z,10.18
2022-10-26T05:35:43.792Z,11.20
2022-10-26T05:38:17.550Z,11.30
2022-10-26T05:40:54.133Z,19.98
2022-10-26T05:43:27.438Z,14.90
2022-10-26T05:45:55.390Z,12.20
2022-10-26T05:48:23.457Z,12.02
2022-10-26T05:50:51.918Z,12.18
2022-10-26T05:53:20.215Z,11.48
2022-10-26T05:55:48.488Z,12.75
2022-10-26T05:58:16.981Z,12.32
2022-10-26T06:01:24.034Z,12.93
2022-10-26T06:04:48.219Z,12.43
2022-10-26T06:07:22.112Z,13.10
2022-10-26T06:09:50.854Z,13.38
2022-10-26T06:12:19.991Z,14.35
2022-10-26T06:14:48.494Z,13.23
2022-10-26T06:18:01.458Z,13.82
2022-10-26T06:20:36.495Z,15.18
2022-10-26T06:23:32.179Z,14.23
2022-10-26T06:26:30.696Z,14.77
2022-10-26T06:29:32.274Z,14.40
2022-10-26T06:32:00.153Z,14.30
2022-10-26T06:34:37.257Z,15.98
2022-10-26T06:37:05.554Z,14.73
2022-10-26T06:39:44.469Z,15.82
2022-10-26T06:42:12.968Z,15.50
2022-10-26T06:44:41.844Z,15.43
2022-10-26T06:47:27.684Z,15.80
2022-10-26T06:50:38.695Z,15.57
2022-10-26T06:53:44.244Z,15.23
2022-10-26T06:56:13.983Z,16.48
2022-10-26T06:58:45.100Z,15.35
2022-10-26T07:01:13.816Z,15.07
2022-10-26T07:03:41.828Z,16.45
2022-10-26T07:06:10.277Z,15.32
2022-10-26T07:08:39.324Z,16.13
2022-10-26T07:11:09.429Z,16.33
2022-10-26T07:13:44.761Z,14.43
2022-10-26T07:16:12.780Z,14.43
2022-10-26T07:18:40.785Z,13.23
2022-10-26T07:21:14.064Z,11.82
2022-10-26T07:23:42.230Z,11.10
2022-10-26T07:26:10.070Z,10.60
2022-10-26T07:28:38.262Z,10.63
2022-10-26T07:31:06.255Z,10.50
2022-10-26T07:33:36.887Z,10.90
2022-10-26T07:36:11.102Z,11.07
2022-10-26T07:38:39.676Z,10.18
2022-10-26T07:41:08.267Z,9.80
2022-10-26T07:43:36.206Z,9.35
2022-10-26T07:46:04.499Z,8.27
2022-10-26T07:48:34.401Z,9.73
2022-10-26T07:51:03.338Z,8.65
2022-10-26T07:53:32.268Z,10.63
2022-10-26T07:56:00.220Z,11.68
2022-10-26T07:58:28.455Z,11.52
2022-10-26T08:00:57.129Z,11.35
2022-10-26T08:03:25.189Z,11.65
2022-10-26T08:05:56.228Z,11.25
2022-10-26T08:08:24.388Z,11.73
2022-10-26T08:10:53.752Z,11.43
2022-10-26T08:13:21.954Z,10.93
2022-10-26T08:15:50.159Z,11.05
2022-10-26T08:18:18.019Z,11.43
2022-10-26T08:20:46.279Z,9.88
2022-10-26T08:23:14.824Z,10.55
2022-10-26T08:25:42.841Z,9.95
2022-10-26T08:28:10.970Z,9.82
2022-10-26T08:30:38.935Z,10.48
2022-10-26T08:33:08.574Z,10.25
2022-10-26T08:35:36.676Z,10.20
2022-10-26T08:38:04.536Z,9.88
2022-10-26T08:40:43.174Z,10.48
2022-10-26T08:43:29.512Z,9.27
2022-10-26T08:46:05.136Z,10.27
2022-10-26T08:48:40.991Z,10.75
2022-10-26T08:51:27.940Z,10.85
2022-10-26T08:54:41.022Z,10.82
2022-10-26T08:57:35.883Z,10.80
2022-10-26T09:00:11.188Z,10.63
2022-10-26T09:02:39.495Z,10.60
2022-10-26T09:05:17.424Z,10.90
2022-10-26T09:08:18.005Z,9.80
2022-10-26T09:11:10.863Z,10.15
2022-10-26T09:13:55.157Z,11.55
2022-10-26T09:16:55.695Z,10.50
2022-10-26T09:19:50.945Z,10.23
2022-10-26T09:22:38.696Z,11.82
2022-10-26T09:25:24.944Z,10.90
2022-10-26T09:28:01.686Z,10.95
2022-10-26T09:30:31.428Z,11.25
2022-10-26T09:33:25.049Z,9.98
2022-10-26T09:36:21.345Z,11.00
2022-10-26T09:39:10.855Z,10.90
2022-10-26T09:41:59.705Z,10.10
2022-10-26T09:45:18.211Z,9.77
2022-10-26T09:47:52.976Z,10.43
2022-10-26T09:50:31.331Z,10.50
2022-10-26T09:52:59.433Z,11.30
2022-10-26T09:55:27.990Z,9.10
2022-10-26T09:58:01.458Z,9.93
2022-10-26T10:00:30.843Z,9.48
2022-10-26T10:02:59.262Z,10.48
2022-10-26T10:05:52.491Z,9.55
2022-10-26T10:08:24.015Z,8.70
2022-10-26T10:11:13.786Z,9.38
2022-10-26T10:13:46.719Z,8.77
2022-10-26T10:16:24.508Z,9.50
2022-10-26T10:18:59.538Z,8.85
2022-10-26T10:21:59.414Z,10.27
2022-10-26T10:24:30.998Z,10.32
2022-10-26T10:27:17.500Z,9.48
2022-10-26T10:29:59.718Z,9.50
2022-10-26T10:32:35.850Z,9.70
2022-10-26T10:35:29.306Z,9.43
2022-10-26T10:37:57.976Z,10.00
2022-10-26T10:40:31.345Z,8.38
2022-10-26T10:43:14.162Z,8.30
2022-10-26T10:45:55.822Z,6.78
2022-10-26T10:48:31.642Z,7.55
2022-10-26T10:51:11.095Z,8.23
2022-10-26T10:53:54.320Z,8.27
2022-10-26T10:56:47.626Z,8.48
2022-10-26T10:59:45.141Z,9.23
2022-10-26T11:02:30.588Z,7.70
2022-10-26T11:05:24.768Z,7.93
2022-10-26T11:08:09.157Z,7.03
2022-10-26T11:13:54.468Z,6.67
2022-10-26T11:16:39.413Z,5.47
2022-10-26T11:19:23.644Z,5.82
2022-10-26T11:21:56.496Z,4.78
2022-10-26T11:24:56.593Z,5.65
2022-10-26T11:28:11.589Z,5.63
2022-10-26T11:30:48.730Z,4.90
2022-10-26T11:33:31.360Z,4.90
2022-10-26T11:36:11.337Z,4.95
2022-10-26T11:39:15.981Z,5.50
2022-10-26T11:41:51.423Z,5.03
2022-10-26T11:44:52.706Z,5.45
2022-10-26T11:47:35.724Z,6.03
2022-10-26T11:50:26.057Z,5.18
2022-10-26T11:53:17.826Z,5.68
2022-10-26T11:55:54.582Z,5.10
2022-10-26T11:58:28.690Z,5.10
2022-10-26T12:01:04.810Z,5.50
2022-10-26T12:03:48.940Z,4.78
2022-10-26T12:06:25.710Z,4.95
2022-10-26T12:09:13.396Z,4.88
2022-10-26T12:11:57.133Z,6.00
2022-10-26T12:14:49.627Z,6.07
2022-10-26T12:17:35.075Z,5.40
2022-10-26T12:20:31.118Z,5.80
2022-10-26T12:22:59.513Z,5.38
2022-10-26T12:25:27.742Z,5.15
2022-10-26T12:27:58.548Z,5.05
2022-10-26T12:30:32.721Z,5.25
2022-10-26T12:33:29.562Z,5.72
2022-10-26T12:35:57.831Z,5.75
2022-10-26T12:38:29.071Z,5.35
2022-10-26T12:41:20.073Z,4.68
2022-10-26T12:43:48.582Z,5.30
2022-10-26T12:46:16.350Z,5.03
2022-10-26T12:48:50.820Z,5.20
2022-10-26T12:51:27.472Z,4.97
2022-10-26T12:54:04.189Z,4.75
2022-10-26T12:57:10.529Z,4.85
2022-10-26T13:00:00.212Z,5.00
2022-10-26T13:03:00.675Z,4.50
2022-10-26T13:06:09.049Z,4.63
2022-10-26T13:08:57.730Z,3.90
2022-10-26T13:11:35.455Z,3.88
2022-10-26T13:14:07.643Z,3.80
2022-10-26T13:16:35.950Z,4.70
2022-10-26T13:19:03.907Z,3.95
2022-10-26T13:21:45.782Z,4.20
2022-10-26T13:24:15.074Z,4.55
2022-10-26T13:27:34.049Z,4.45
2022-10-26T13:30:04.752Z,4.57
2022-10-26T13:32:48.922Z,4.78
2022-10-26T13:35:18.353Z,4.30
2022-10-26T13:37:50.591Z,4.35
2022-10-26T13:40:30.011Z,3.10
2022-10-26T13:43:03.795Z,4.07
2022-10-26T13:45:54.982Z,4.20
2022-10-26T13:48:41.671Z,4.10
2022-10-26T13:51:25.969Z,4.25
2022-10-26T13:54:18.985Z,3.97
2022-10-26T13:57:17.166Z,4.00
2022-10-26T13:59:46.879Z,5.00
2022-10-26T14:02:30.825Z,4.20
2022-10-26T14:05:05.576Z,6.10
2022-10-26T14:07:56.835Z,5.18
2022-10-26T14:15:37.106Z,7.70
2022-10-26T14:18:05.649Z,6.55
2022-10-26T14:20:33.616Z,6.07
2022-10-26T14:23:01.608Z,5.60
2022-10-26T14:25:42.181Z,5.75
2022-10-26T14:28:25.946Z,5.40
2022-10-26T14:30:54.393Z,4.65
2022-10-26T14:33:29.385Z,5.82
2022-10-26T14:35:57.923Z,5.10
2022-10-26T14:38:32.681Z,4.50
2022-10-26T14:41:00.714Z,5.00
2022-10-26T14:43:28.777Z,5.05
2022-10-26T14:45:57.515Z,6.05
2022-10-26T14:48:35.929Z,6.20
2022-10-26T14:51:34.407Z,5.90
2022-10-26T14:54:04.519Z,5.40
2022-10-26T14:56:41.294Z,5.55
2022-10-26T14:59:28.668Z,4.70
2022-10-26T15:02:17.227Z,4.97
2022-10-26T15:05:04.014Z,4.78
2022-10-26T15:07:39.950Z,4.40
2022-10-26T15:10:37.115Z,4.45
2022-10-26T15:13:29.607Z,4.85
2022-10-26T15:16:23.295Z,4.63
2022-10-26T15:18:58.999Z,4.88
2022-10-26T15:21:37.568Z,4.60
2022-10-26T15:24:38.458Z,5.13
2022-10-26T15:27:17.032Z,8.05
2022-10-26T15:29:49.470Z,8.23
2022-10-26T15:35:27.897Z,6.75
2022-10-26T15:37:57.805Z,7.30
2022-10-26T15:40:27.466Z,6.97
2022-10-26T15:42:58.311Z,7.70
2022-10-26T15:45:34.253Z,7.50
2022-10-26T15:48:25.755Z,6.60
2022-10-26T15:50:54.064Z,6.18
2022-10-26T15:53:30.664Z,6.85
2022-10-26T15:56:00.546Z,6.28
2022-10-26T15:58:31.529Z,7.05
2022-10-26T16:00:59.850Z,8.77
2022-10-26T16:03:28.675Z,9.38
2022-10-26T16:06:02.619Z,8.02
2022-10-26T16:08:32.215Z,9.98
2022-10-26T16:11:00.142Z,9.40
2022-10-26T16:13:28.720Z,9.85
2022-10-26T16:15:57.341Z,8.80
2022-10-26T16:18:28.308Z,7.95
2022-10-26T16:20:56.623Z,8.10
2022-10-26T16:23:24.816Z,8.70
2022-10-26T16:25:54.137Z,9.65
2022-10-26T16:28:22.249Z,9.18
2022-10-26T16:30:50.397Z,9.70
2022-10-26T16:33:18.587Z,9.70
2022-10-26T16:35:58.229Z,10.13
2022-10-26T16:38:28.003Z,10.90
2022-10-26T16:43:59.032Z,12.30
2022-10-26T16:46:27.380Z,12.27
2022-10-26T16:49:02.225Z,13.15
2022-10-26T16:51:33.441Z,13.75
2022-10-26T16:54:01.706Z,12.40
2022-10-26T16:56:30.681Z,13.48
2022-10-26T16:58:59.064Z,12.88
2022-10-26T17:01:27.381Z,13.57
2022-10-26T17:03:56.235Z,12.57
2022-10-26T17:06:25.791Z,11.00
2022-10-26T17:08:53.626Z,9.23
2022-10-26T17:11:22.404Z,10.60
2022-10-26T17:13:55.179Z,11.60
2022-10-26T17:16:25.345Z,12.75
2022-10-26T17:18:54.513Z,17.25
2022-10-26T17:21:36.457Z,21.20
2022-10-26T17:24:04.760Z,21.15
2022-10-26T17:26:33.280Z,22.95
2022-10-26T17:29:01.990Z,26.70
2022-10-26T17:31:32.533Z,39.65
2022-10-26T17:34:00.534Z,31.35
2022-10-26T17:36:28.728Z,25.35
2022-10-26T17:38:57.706Z,22.35
2022-10-26T17:41:26.117Z,19.75
2022-10-26T17:43:54.462Z,23.77
2022-10-26T17:46:25.800Z,28.30
2022-10-26T17:48:57.245Z,26.42
2022-10-26T17:51:27.174Z,28.50
2022-10-26T17:53:59.808Z,28.50
2022-10-26T17:56:32.111Z,27.95
2022-10-26T17:59:04.682Z,30.45
2022-10-26T18:01:37.403Z,30.00
2022-10-26T18:04:05.729Z,28.33
2022-10-26T18:06:33.715Z,30.77
2022-10-26T18:09:01.839Z,31.20
2022-10-26T18:13:59.937Z,32.47
2022-10-26T18:16:29.068Z,30.65
2022-10-26T18:19:01.582Z,30.50
2022-10-26T18:21:32.904Z,27.48
2022-10-26T18:24:01.197Z,26.55
2022-10-26T18:26:31.012Z,26.85
2022-10-26T18:29:01.310Z,27.25
2022-10-26T18:31:32.130Z,28.98
2022-10-26T18:34:04.228Z,27.17
2022-10-26T18:36:33.418Z,27.42
2022-10-26T18:39:01.853Z,28.02
2022-10-26T18:41:30.156Z,27.45
2022-10-26T18:44:00.072Z,39.58
2022-10-26T18:46:32.076Z,29.20
2022-10-26T18:49:01.175Z,30.25
2022-10-26T18:51:34.537Z,30.25
2022-10-26T18:54:03.060Z,30.23
2022-10-26T18:56:31.537Z,30.73
2022-10-26T18:59:01.243Z,34.88
2022-10-26T19:01:36.614Z,42.20
2022-10-26T19:04:09.522Z,45.28
2022-10-26T19:06:47.720Z,40.13
2022-10-26T19:09:19.334Z,38.47
2022-10-26T19:11:48.439Z,35.65
2022-10-26T19:14:19.712Z,37.47
2022-10-26T19:16:51.974Z,39.17
2022-10-26T19:19:21.143Z,43.30
2022-10-26T19:21:50.580Z,40.38
2022-10-26T19:24:24.048Z,35.83
2022-10-26T19:26:54.527Z,38.97
2022-10-26T19:29:23.137Z,39.13
2022-10-26T19:31:53.501Z,35.20
2022-10-26T19:34:22.125Z,37.13
2022-10-26T19:36:50.264Z,35.42
2022-10-26T19:39:19.278Z,35.47
2022-10-26T19:41:47.780Z,34.90
2022-10-26T19:45:37.369Z,36.65
2022-10-26T19:48:05.876Z,41.38
2022-10-26T19:50:34.018Z,36.08
2022-10-26T19:53:04.057Z,36.42
2022-10-26T19:55:32.557Z,38.17
2022-10-26T19:58:00.656Z,39.17
2022-10-26T20:00:35.976Z,35.92
2022-10-26T20:03:05.123Z,41.40
2022-10-26T20:05:33.619Z,41.40
2022-10-26T20:08:01.803Z,50.25
2022-10-26T20:10:34.412Z,75.57
2022-10-26T20:13:02.581Z,65.65
2022-10-26T20:15:37.907Z,61.05
2022-10-26T20:18:07.190Z,66.72
2022-10-26T20:20:38.102Z,52.38
2022-10-26T20:23:10.565Z,34.88
2022-10-26T20:25:50.731Z,41.88
2022-10-26T20:28:20.556Z,38.42
2022-10-26T20:30:50.037Z,32.28
2022-10-26T20:33:18.713Z,32.03
2022-10-26T20:35:47.692Z,34.42
2022-10-26T20:38:21.420Z,34.97
2022-10-26T20:41:02.659Z,38.40
2022-10-26T20:43:33.324Z,44.50
2022-10-26T20:46:01.924Z,55.17
2022-10-26T20:48:30.410Z,40.60
2022-10-26T20:51:08.144Z,40.47
2022-10-26T20:53:44.467Z,37.00
2022-10-26T20:56:26.515Z,33.83
2022-10-26T20:59:01.358Z,90.57
2022-10-26T21:01:32.604Z,69.15
2022-10-26T21:04:03.891Z,38.88
2022-10-26T21:06:40.356Z,34.55
2022-10-26T21:09:09.637Z,31.50
2022-10-26T21:11:37.685Z,29.20
2022-10-26T21:14:06.700Z,30.48
2022-10-26T21:16:34.556Z,30.60
2022-10-26T21:19:05.140Z,32.53
2022-10-26T21:21:33.291Z,37.22
2022-10-26T21:24:01.541Z,34.95
2022-10-26T21:26:30.173Z,33.55
2022-10-26T21:28:59.643Z,33.53
2022-10-26T21:31:27.721Z,34.88
2022-10-26T21:33:55.938Z,34.97
2022-10-26T21:36:26.706Z,36.67
2022-10-26T21:38:54.650Z,33.83
2022-10-26T21:44:03.374Z,32.20
2022-10-26T21:46:40.518Z,35.17
2022-10-26T21:49:10.447Z,32.45
2022-10-26T21:51:38.527Z,33.88
2022-10-26T21:54:06.678Z,36.67
2022-10-26T21:56:34.780Z,35.13
2022-10-26T21:59:03.065Z,36.70
2022-10-26T22:01:31.116Z,36.95
2022-10-26T22:03:59.167Z,38.95
2022-10-26T22:06:27.247Z,38.75
2022-10-26T22:08:55.206Z,38.17
2022-10-26T22:11:25.383Z,41.08
2022-10-26T22:13:53.809Z,45.70
2022-10-26T22:16:23.859Z,45.42
2022-10-26T22:18:55.289Z,43.70
2022-10-26T22:21:26.457Z,42.00
2022-10-26T22:23:55.104Z,30.90
2022-10-26T22:26:25.497Z,39.38
2022-10-26T22:28:56.455Z,39.03
2022-10-26T22:31:37.791Z,37.25
2022-10-26T22:34:13.657Z,41.38
2022-10-26T22:36:42.010Z,41.38
2022-10-26T22:39:10.010Z,40.63
2022-10-26T22:41:38.428Z,41.97
2022-10-26T22:44:07.209Z,42.72
2022-10-26T22:46:35.146Z,40.13
2022-10-26T22:49:03.705Z,42.95
2022-10-26T22:51:34.985Z,43.58
2022-10-26T22:54:04.715Z,39.47
2022-10-26T22:56:35.418Z,41.22
2022-10-26T22:59:05.237Z,41.38
2022-10-26T23:01:38.536Z,41.90
2022-10-26T23:04:06.599Z,40.83
2022-10-26T23:06:34.776Z,39.28
2022-10-26T23:09:03.027Z,38.92
2022-10-26T23:11:31.094Z,40.35
2022-10-26T23:14:01.619Z,40.78
2022-10-26T23:16:31.065Z,39.45
2022-10-26T23:18:59.806Z,39.30
2022-10-26T23:21:29.619Z,38.60
2022-10-26T23:23:58.722Z,37.65
2022-10-26T23:26:26.722Z,38.10
2022-10-26T23:28:54.852Z,39.50
2022-10-26T23:31:26.355Z,39.65
2022-10-26T23:33:56.495Z,35.90
2022-10-26T23:36:24.707Z,33.20
2022-10-26T23:38:53.134Z,35.55
2022-10-26T23:41:21.091Z,32.72
2022-10-26T23:43:49.198Z,33.13
2022-10-26T23:46:17.333Z,31.85
2022-10-26T23:48:45.547Z,33.72
2022-10-26T23:51:13.855Z,34.63
2022-10-26T23:53:41.819Z,32.22
2022-10-26T23:56:09.723Z,30.85
2022-10-26T23:58:37.760Z,29.05
